Terminal Aerodrome Forecast
Issued by NWS

Current Version | Previous Version | Graphics & Text | Print | Product List | Glossary On
Versions: 1 2 3 4 5 6 7 8 9 10 11 12 13 14 15 16 17 18
000
FTUS41 KPBZ 050943 AAA
TAFHLG
TAF AMD
KHLG 050943Z 0510/0606 24007KT P6SM VCSH BKN050
     FM052100 25004KT P6SM VCTS BKN035CB
     FM060010 33003KT P6SM BKN080=

USA.gov is the U.S. government's official web portal to all federal, state and local government web resources and services.